Time;durP1;ratioP1;P1;durP2;ratioP2;P2;SDS_P1;SDS_P2;PMS_P1;PMS_P2;Temp;Humidity;BMP_temperature;BMP_pressure;BME280_temperature;BME280_humidity;BME280_pressure;Samples;Min_cycle;Max_cycle;Signal;HPM_P1;HPM_P2
2023/11/22 09:59:23;;;;;;;1.70;1.60;;;23.70;61.50;;;;;;5648351;22;20487;-95
2023/11/22 10:01:52;;;;;;;2.20;1.40;;;23.70;61.60;;;;;;5116453;28;20412;-84
2023/11/22 10:19:55;;;;;;;13.00;7.50;;;23.70;62.90;;;;;;5151721;22;20472;-85
2023/11/22 10:22:22;;;;;;;11.37;8.30;;;23.60;62.40;;;;;;5061707;28;20458;-85
2023/11/22 10:24:49;;;;;;;13.90;8.67;;;23.60;63.10;;;;;;5061329;28;20453;-85
2023/11/22 10:29:53;;;;;;;12.30;8.47;;;23.70;64.60;;;;;;5635231;22;20417;-85
2023/11/22 10:35:10;;;;;;;8.17;6.17;;;23.70;64.20;;;;;;5564779;22;20486;-93
2023/11/22 10:37:37;;;;;;;9.07;5.87;;;23.60;61.90;;;;;;5056494;28;20485;-85
2023/11/22 10:40:08;;;;;;;9.87;5.33;;;23.50;62.70;;;;;;5068676;22;20489;-84
2023/11/22 10:42:36;;;;;;;10.80;6.17;;;23.50;62.80;;;;;;5116795;28;20457;-85
2023/11/22 10:45:07;;;;;;;9.40;6.03;;;23.50;63.60;;;;;;5058389;22;20505;-85
2023/11/22 10:47:38;;;;;;;9.00;6.20;;;23.60;63.10;;;;;;5037617;28;20489;-86
2023/11/22 10:50:07;;;;;;;11.20;6.80;;;23.60;63.90;;;;;;5043365;28;20434;-87
2023/11/22 10:52:37;;;;;;;10.97;7.00;;;23.60;63.60;;;;;;5056411;23;20891;-85
2023/11/22 10:55:05;;;;;;;6.53;5.80;;;23.60;63.70;;;;;;5056514;28;20460;-85
2023/11/22 10:57:33;;;;;;;10.13;7.20;;;23.60;63.30;;;;;;5058581;28;20528;-85
2023/11/22 11:00:07;;;;;;;9.30;6.27;;;23.60;63.60;;;;;;5057321;28;20450;-85
2023/11/22 11:02:41;;;;;;;7.00;5.70;;;23.60;63.90;;;;;;5055071;28;20810;-96
2023/11/22 11:05:17;;;;;;;8.47;5.37;;;23.70;63.80;;;;;;5069667;22;20469;-85
2023/11/22 11:07:51;;;;;;;8.97;5.63;;;23.70;63.80;;;;;;5061816;28;20975;-85
2023/11/22 11:10:21;;;;;;;7.10;5.33;;;23.70;63.90;;;;;;5076746;28;20486;-86
2023/11/22 11:12:48;;;;;;;7.03;4.77;;;23.60;63.80;;;;;;5078731;28;20448;-85
2023/11/22 11:15:17;;;;;;;9.33;6.37;;;23.70;63.90;;;;;;5084349;22;20423;-85
2023/11/22 11:17:49;;;;;;;11.10;5.17;;;23.70;63.90;;;;;;5062821;28;20492;-85
2023/11/22 11:20:18;;;;;;;6.73;5.53;;;23.70;64.00;;;;;;5057850;28;20446;-85
2023/11/22 11:22:49;;;;;;;12.23;5.40;;;23.70;64.00;;;;;;5062740;28;20421;-86
2023/11/22 11:25:18;;;;;;;9.80;6.33;;;23.70;64.00;;;;;;5056071;28;20879;-85
2023/11/22 11:27:45;;;;;;;6.17;5.00;;;23.70;64.00;;;;;;5056072;28;20500;-85
2023/11/22 11:30:44;;;;;;;5.43;4.77;;;23.70;63.90;;;;;;5057887;28;20449;-85
2023/11/22 11:33:13;;;;;;;6.70;5.27;;;23.70;64.10;;;;;;5026099;28;20457;-85
2023/11/22 11:35:45;;;;;;;8.40;4.53;;;23.70;64.10;;;;;;5061515;28;20524;-85
2023/11/22 11:38:15;;;;;;;5.60;4.90;;;23.70;64.20;;;;;;5067213;28;21051;-86
2023/11/22 11:40:42;;;;;;;6.90;4.33;;;23.70;64.10;;;;;;5077976;28;20456;-85
2023/11/22 11:43:10;;;;;;;5.53;4.00;;;23.80;64.30;;;;;;5081194;28;20447;-85
2023/11/22 11:45:40;;;;;;;6.67;4.13;;;23.70;63.00;;;;;;5077906;28;20474;-85
2023/11/22 11:48:07;;;;;;;5.07;4.07;;;23.70;64.80;;;;;;5077066;28;20436;-85
2023/11/22 11:50:34;;;;;;;8.67;5.70;;;23.70;64.00;;;;;;5082861;28;20460;-85
2023/11/22 11:53:00;;;;;;;6.30;4.90;;;23.80;64.10;;;;;;5081829;28;20504;-85
2023/11/22 11:55:28;;;;;;;3.93;3.53;;;23.80;64.10;;;;;;5075520;28;20446;-86
2023/11/22 11:57:56;;;;;;;5.50;3.90;;;23.80;64.10;;;;;;5071066;22;20496;-85
2023/11/22 12:00:24;;;;;;;5.00;3.10;;;23.80;64.00;;;;;;5057362;28;20450;-85
2023/11/22 12:02:51;;;;;;;5.23;3.70;;;23.70;63.80;;;;;;5061063;28;20432;-85
2023/11/22 12:05:20;;;;;;;4.23;3.50;;;23.70;62.70;;;;;;5059126;28;20452;-85
2023/11/22 12:07:48;;;;;;;6.30;3.60;;;23.70;61.90;;;;;;5064133;28;20497;-85
2023/11/22 12:10:14;;;;;;;4.03;3.00;;;23.60;62.60;;;;;;5082410;28;20444;-85
2023/11/22 12:12:46;;;;;;;5.63;3.43;;;23.70;63.70;;;;;;5077449;28;20793;-85
2023/11/22 12:15:15;;;;;;;3.33;3.03;;;23.60;61.80;;;;;;5077757;28;20484;-85
2023/11/22 12:17:42;;;;;;;4.30;3.47;;;23.60;63.00;;;;;;5076347;28;20499;-85
2023/11/22 12:20:13;;;;;;;3.70;3.37;;;23.60;63.30;;;;;;5077012;28;20540;-88
2023/11/22 12:22:41;;;;;;;3.73;2.90;;;23.70;63.50;;;;;;5073437;28;20502;-86
2023/11/22 12:25:09;;;;;;;5.87;3.00;;;23.60;62.30;;;;;;5073602;28;20498;-87
2023/11/22 12:27:40;;;;;;;3.17;2.70;;;23.60;61.10;;;;;;5073454;28;20449;-92
2023/11/22 12:30:11;;;;;;;3.63;2.50;;;23.60;60.50;;;;;;5073402;28;20424;-94
2023/11/22 12:32:41;;;;;;;5.00;3.33;;;23.50;60.40;;;;;;5073337;28;20550;-86
2023/11/22 12:35:08;;;;;;;3.37;2.73;;;23.50;60.10;;;;;;5074085;28;20830;-92
2023/11/22 12:37:35;;;;;;;6.70;3.00;;;23.50;60.90;;;;;;5077036;28;20518;-86
2023/11/22 12:40:10;;;;;;;3.87;2.60;;;23.50;62.10;;;;;;5076845;28;20801;-86
2023/11/22 12:42:48;;;;;;;4.53;2.97;;;23.50;62.70;;;;;;5075399;28;20444;-96
2023/11/22 12:45:21;;;;;;;3.10;2.80;;;23.60;63.10;;;;;;5079291;28;20551;-86
2023/11/22 12:47:49;;;;;;;5.70;3.40;;;23.60;63.10;;;;;;5074705;28;20436;-86
2023/11/22 12:50:32;;;;;;;5.37;2.90;;;23.70;63.30;;;;;;5057605;28;20928;-86
2023/11/22 12:53:00;;;;;;;3.50;3.20;;;23.70;63.20;;;;;;5076618;28;20436;-95
2023/11/22 12:55:27;;;;;;;4.23;3.07;;;23.70;63.20;;;;;;5075287;28;20432;-86
2023/11/22 12:57:59;;;;;;;3.70;2.57;;;23.70;63.20;;;;;;5076987;28;20504;-86
2023/11/22 13:00:29;;;;;;;8.30;3.00;;;23.80;63.30;;;;;;5074799;28;20791;-86
2023/11/22 13:02:57;;;;;;;3.93;2.30;;;23.80;63.20;;;;;;5077979;28;20454;-86
2023/11/22 13:05:23;;;;;;;4.37;3.00;;;23.80;63.20;;;;;;5080209;28;20444;-86
2023/11/22 13:07:50;;;;;;;3.57;2.53;;;23.80;63.10;;;;;;5077948;28;20963;-86
2023/11/22 13:10:18;;;;;;;3.83;3.00;;;23.80;63.00;;;;;;5075427;28;20444;-86
2023/11/22 13:12:45;;;;;;;2.77;2.53;;;23.90;63.10;;;;;;5079569;28;20490;-88
2023/11/22 13:15:12;;;;;;;6.20;3.87;;;23.90;63.00;;;;;;5079617;28;20446;-86
2023/11/22 13:17:40;;;;;;;2.77;2.40;;;23.90;62.90;;;;;;5075998;28;20472;-86
2023/11/22 13:20:13;;;;;;;2.50;2.27;;;23.90;62.90;;;;;;5078917;28;20789;-86
2023/11/22 13:22:41;;;;;;;2.47;2.27;;;23.90;62.90;;;;;;5075129;28;20437;-86
2023/11/22 13:25:10;;;;;;;5.30;3.20;;;24.00;62.90;;;;;;5079245;28;20445;-85
2023/11/22 13:27:37;;;;;;;5.87;2.50;;;24.00;63.00;;;;;;5076702;28;20447;-86
2023/11/22 13:30:04;;;;;;;5.07;2.40;;;24.00;62.90;;;;;;5074405;28;20433;-86
2023/11/22 13:32:32;;;;;;;3.53;2.10;;;24.00;63.00;;;;;;5075874;28;20404;-86
2023/11/22 13:35:00;;;;;;;4.87;3.50;;;24.00;63.00;;;;;;5057895;28;20444;-94
2023/11/22 13:37:27;;;;;;;3.47;2.40;;;24.00;63.20;;;;;;5079626;28;20905;-86
2023/11/22 13:39:54;;;;;;;4.33;2.50;;;23.90;63.20;;;;;;5073912;28;20444;-87
2023/11/22 13:42:21;;;;;;;2.90;2.23;;;23.90;63.30;;;;;;5074934;28;20442;-86
2023/11/22 13:44:48;;;;;;;2.87;2.03;;;23.90;63.30;;;;;;5073362;28;20443;-86
2023/11/22 13:47:15;;;;;;;5.13;2.00;;;23.80;60.80;;;;;;5078023;28;20463;-86
2023/11/22 13:49:43;;;;;;;5.20;2.50;;;23.70;62.10;;;;;;5083207;22;20473;-87
2023/11/22 13:52:11;;;;;;;3.13;1.73;;;23.70;61.00;;;;;;5058379;28;20442;-88
2023/11/22 13:54:39;;;;;;;4.60;2.27;;;23.70;62.80;;;;;;5056721;28;20441;-86
2023/11/22 13:57:06;;;;;;;6.07;2.90;;;23.70;63.30;;;;;;5056681;28;20489;-95
2023/11/22 13:59:34;;;;;;;2.00;1.80;;;23.70;63.20;;;;;;5057269;28;20444;-86
2023/11/22 14:02:01;;;;;;;6.57;2.37;;;23.60;63.00;;;;;;5059822;28;20449;-86
2023/11/22 14:04:28;;;;;;;4.50;1.93;;;23.60;63.20;;;;;;5062129;28;20438;-86
2023/11/22 14:06:55;;;;;;;7.17;2.50;;;23.60;63.40;;;;;;5058923;28;20425;-96
2023/11/22 14:09:23;;;;;;;3.63;2.10;;;23.60;63.30;;;;;;5077375;28;20458;-86
2023/11/22 14:11:50;;;;;;;2.73;1.90;;;23.60;63.30;;;;;;5077624;28;20433;-86
2023/11/22 14:14:19;;;;;;;4.03;2.20;;;23.60;62.40;;;;;;5076537;28;20436;-86
2023/11/22 14:16:48;;;;;;;3.63;1.93;;;23.50;62.30;;;;;;5077396;28;20491;-85
2023/11/22 14:19:15;;;;;;;2.10;1.90;;;23.50;62.60;;;;;;5078628;28;20448;-86
2023/11/22 14:21:41;;;;;;;2.10;1.90;;;23.50;61.60;;;;;;5077034;28;20436;-93
2023/11/22 14:24:09;;;;;;;4.37;1.93;;;23.50;61.90;;;;;;5077293;28;20429;-87
2023/11/22 14:26:37;;;;;;;2.73;2.07;;;23.50;62.10;;;;;;5078226;28;20843;-86
2023/11/22 14:29:05;;;;;;;1.90;1.50;;;23.40;61.70;;;;;;5077116;28;20443;-86
2023/11/22 14:31:32;;;;;;;2.57;1.90;;;23.40;62.10;;;;;;5078172;28;20490;-86
2023/11/22 14:33:59;;;;;;;5.27;2.27;;;23.40;62.00;;;;;;5076405;28;20448;-86
2023/11/22 14:36:26;;;;;;;1.73;1.60;;;23.40;61.90;;;;;;5076813;28;21012;-96
2023/11/22 14:38:56;;;;;;;2.03;1.83;;;23.40;61.70;;;;;;5078323;28;20492;-86
2023/11/22 14:41:23;;;;;;;2.47;2.07;;;23.40;61.50;;;;;;5077972;28;20433;-86
2023/11/22 14:43:51;;;;;;;1.97;1.53;;;23.40;61.70;;;;;;5078429;28;20451;-86
2023/11/22 14:46:19;;;;;;;1.90;1.60;;;23.40;62.00;;;;;;5078189;28;20437;-96
2023/11/22 14:48:48;;;;;;;3.00;1.60;;;23.40;62.00;;;;;;5075840;28;20436;-86
2023/11/22 14:51:14;;;;;;;6.63;1.70;;;23.40;61.90;;;;;;5076260;28;20530;-86
2023/11/22 14:53:42;;;;;;;1.87;1.73;;;23.40;62.10;;;;;;5076522;28;20435;-86
2023/11/22 14:56:11;;;;;;;2.70;2.20;;;23.40;61.90;;;;;;5076141;28;20433;-86
2023/11/22 14:58:38;;;;;;;2.80;1.93;;;23.40;62.30;;;;;;5075687;28;20484;-86
2023/11/22 15:01:08;;;;;;;2.70;1.80;;;23.30;61.90;;;;;;5076745;28;20463;-87
2023/11/22 15:03:35;;;;;;;3.07;1.57;;;23.30;61.90;;;;;;5076494;28;20445;-86
2023/11/22 15:06:02;;;;;;;2.90;1.70;;;23.40;62.20;;;;;;5076254;28;20523;-90
2023/11/22 15:08:29;;;;;;;1.90;1.53;;;23.30;61.90;;;;;;5076758;28;20457;-86
2023/11/22 15:10:56;;;;;;;2.53;1.90;;;23.30;61.90;;;;;;5076063;28;20472;-91
2023/11/22 15:13:24;;;;;;;1.70;1.40;;;23.30;61.90;;;;;;5075275;28;20444;-86
2023/11/22 15:15:51;;;;;;;3.23;1.73;;;23.30;61.30;;;;;;5079347;28;20417;-86
2023/11/22 15:18:19;;;;;;;7.67;2.30;;;23.30;61.30;;;;;;5072335;28;20476;-88
2023/11/22 15:20:47;;;;;;;2.30;1.90;;;23.30;61.80;;;;;;5062156;28;20444;-89
2023/11/22 15:23:29;;;;;;;3.90;2.53;;;23.30;60.90;;;;;;5074591;28;20539;-90
2023/11/22 15:25:57;;;;;;;3.17;1.63;;;23.30;61.70;;;;;;5094299;22;20587;-86
2023/11/22 15:28:24;;;;;;;7.40;1.93;;;23.30;61.90;;;;;;5078031;28;20448;-86
2023/11/22 15:30:56;;;;;;;4.80;1.87;;;23.20;61.60;;;;;;5076617;28;20938;-86
2023/11/22 15:33:24;;;;;;;6.30;1.73;;;23.20;62.10;;;;;;5078820;28;20566;-86
2023/11/22 15:35:51;;;;;;;3.13;2.20;;;23.20;62.00;;;;;;5075490;28;20459;-86
2023/11/22 15:38:17;;;;;;;3.23;1.60;;;23.30;62.10;;;;;;5091866;28;20478;-86
2023/11/22 15:40:44;;;;;;;4.10;1.73;;;23.20;61.10;;;;;;5060224;22;20482;-84
2023/11/22 15:43:12;;;;;;;2.40;2.20;;;23.20;62.20;;;;;;5043801;28;20454;-85
2023/11/22 15:45:40;;;;;;;7.60;1.70;;;23.20;62.20;;;;;;5039070;28;20422;-91
2023/11/22 15:48:07;;;;;;;2.97;1.73;;;23.20;61.90;;;;;;5034594;28;20582;-90
2023/11/22 15:50:36;;;;;;;2.00;1.80;;;23.10;60.10;;;;;;5034309;28;20529;-90
2023/11/22 16:19:20;;;;;;;1.83;1.60;;;22.90;61.60;;;;;;5044906;22;20882;-86
2023/11/22 16:21:47;;;;;;;1.80;1.47;;;22.90;61.90;;;;;;5044169;28;20429;-85
2023/11/22 16:24:15;;;;;;;4.70;1.80;;;22.90;61.50;;;;;;5043051;28;20826;-85
2023/11/22 16:26:42;;;;;;;1.50;1.27;;;22.90;61.80;;;;;;5036305;28;20500;-85
2023/11/22 16:29:08;;;;;;;3.30;1.80;;;23.00;61.60;;;;;;5038890;28;20446;-85
2023/11/22 16:31:34;;;;;;;2.47;1.47;;;23.00;61.30;;;;;;5050795;23;20479;-85
2023/11/22 16:34:02;;;;;;;1.87;1.53;;;23.00;61.60;;;;;;5058345;28;20189;-85
2023/11/22 16:36:31;;;;;;;1.83;1.20;;;22.90;61.40;;;;;;5081655;22;20480;-86
2023/11/22 16:38:58;;;;;;;4.93;1.30;;;22.90;61.40;;;;;;5087662;22;20485;-85
2023/11/22 16:41:25;;;;;;;2.80;1.50;;;22.90;61.20;;;;;;5180511;22;20461;-85
2023/11/22 16:43:52;;;;;;;1.70;1.60;;;23.00;61.40;;;;;;5071768;28;20441;-85
2023/11/22 16:46:19;;;;;;;2.17;1.60;;;22.90;61.40;;;;;;5071778;28;20497;-85
2023/11/22 16:48:45;;;;;;;2.40;2.10;;;22.90;61.40;;;;;;5072313;28;20424;-85
2023/11/22 16:51:12;;;;;;;2.40;1.43;;;22.90;61.20;;;;;;5068681;28;20870;-85
2023/11/22 16:53:41;;;;;;;2.50;2.10;;;23.00;61.60;;;;;;5060772;28;20524;-85
2023/11/22 16:56:08;;;;;;;4.03;1.50;;;22.90;61.40;;;;;;5068553;28;20440;-85
2023/11/22 16:58:36;;;;;;;2.37;1.70;;;22.90;61.30;;;;;;5069642;28;20467;-85
2023/11/22 17:01:03;;;;;;;4.40;1.67;;;22.90;61.40;;;;;;5078599;22;20429;-84
2023/11/22 17:03:30;;;;;;;2.03;1.60;;;22.90;61.40;;;;;;5064467;28;20433;-85
2023/11/22 17:05:57;;;;;;;1.33;1.20;;;22.90;61.40;;;;;;5070107;28;20456;-85
2023/11/22 17:08:23;;;;;;;1.63;1.53;;;22.90;61.40;;;;;;5080200;28;20468;-85
2023/11/22 17:10:52;;;;;;;2.13;1.10;;;22.90;61.40;;;;;;5079558;28;20445;-85
2023/11/22 17:13:19;;;;;;;1.33;1.23;;;22.90;61.30;;;;;;5079064;28;20520;-85
2023/11/22 17:15:45;;;;;;;1.77;1.50;;;22.90;61.30;;;;;;5079660;28;20440;-85
2023/11/22 17:18:12;;;;;;;1.57;1.17;;;23.00;61.60;;;;;;5078009;28;20452;-85
2023/11/22 17:20:39;;;;;;;1.57;1.47;;;22.90;61.60;;;;;;5077084;28;20445;-85
2023/11/22 17:23:06;;;;;;;1.60;1.50;;;22.90;61.60;;;;;;5066678;23;20481;-85
2023/11/22 17:25:33;;;;;;;1.83;1.60;;;22.90;61.50;;;;;;5062633;28;20449;-85
2023/11/22 17:28:01;;;;;;;2.30;1.63;;;22.90;60.50;;;;;;5090692;22;20504;-85
2023/11/22 17:30:28;;;;;;;1.60;1.50;;;23.00;60.80;;;;;;5088409;22;20485;-85
2023/11/22 17:32:55;;;;;;;2.20;1.50;;;23.00;61.30;;;;;;5067770;28;20449;-86
2023/11/22 17:35:23;;;;;;;1.90;1.47;;;23.00;61.50;;;;;;5111390;22;20476;-85
2023/11/22 17:37:52;;;;;;;1.50;1.40;;;23.10;61.60;;;;;;5117802;28;20506;-85
2023/11/22 17:40:19;;;;;;;2.07;1.20;;;23.00;61.50;;;;;;5118475;22;20416;-85
2023/11/22 17:42:46;;;;;;;1.33;1.23;;;23.00;61.30;;;;;;5126451;28;20856;-85
2023/11/22 17:45:14;;;;;;;1.60;1.20;;;23.00;61.10;;;;;;5120731;28;20533;-86
2023/11/22 17:47:41;;;;;;;2.80;1.60;;;23.00;61.30;;;;;;5122627;28;20450;-85
2023/11/22 17:50:09;;;;;;;1.50;1.30;;;23.00;61.30;;;;;;5127788;28;20549;-86
2023/11/22 17:52:35;;;;;;;2.10;1.43;;;22.90;61.20;;;;;;5122283;28;20460;-86
2023/11/22 17:55:03;;;;;;;2.37;1.57;;;22.90;61.30;;;;;;5129328;22;20482;-85
2023/11/22 17:57:30;;;;;;;1.20;1.03;;;22.90;61.20;;;;;;5120020;28;20858;-85
2023/11/22 17:59:57;;;;;;;1.40;1.20;;;22.90;61.30;;;;;;5125589;28;20537;-85
2023/11/22 18:02:25;;;;;;;1.60;1.40;;;22.90;61.10;;;;;;5121830;28;20549;-85
2023/11/22 18:04:52;;;;;;;2.30;1.40;;;22.90;61.00;;;;;;5122713;28;20439;-85
2023/11/22 18:07:19;;;;;;;2.50;1.97;;;22.90;61.30;;;;;;5107967;28;20467;-85
2023/11/22 18:09:45;;;;;;;1.40;0.93;;;22.90;61.10;;;;;;5102686;28;20449;-85
2023/11/22 18:12:12;;;;;;;1.43;1.33;;;22.90;61.30;;;;;;5099830;28;20451;-85
2023/11/22 18:14:39;;;;;;;1.87;1.40;;;22.90;61.20;;;;;;5104880;28;20442;-85
2023/11/22 18:17:06;;;;;;;2.03;1.47;;;22.90;61.20;;;;;;5098040;28;20479;-86
2023/11/22 18:19:34;;;;;;;1.50;1.30;;;22.90;61.10;;;;;;5105007;28;20459;-85
2023/11/22 18:22:00;;;;;;;1.40;1.20;;;22.90;61.40;;;;;;5096798;28;20932;-85
2023/11/22 18:24:28;;;;;;;1.33;1.23;;;22.90;61.10;;;;;;5101680;28;20446;-85
2023/11/22 18:26:56;;;;;;;1.30;1.10;;;22.90;61.20;;;;;;5105972;28;20444;-85
2023/11/22 18:29:23;;;;;;;1.57;1.47;;;22.90;61.10;;;;;;5102289;28;20802;-86
2023/11/22 18:31:51;;;;;;;1.63;1.33;;;22.90;61.50;;;;;;5103044;28;20482;-85
2023/11/22 18:34:18;;;;;;;2.00;1.50;;;22.90;61.30;;;;;;5101932;28;20526;-85
2023/11/22 18:36:46;;;;;;;1.70;1.50;;;22.80;61.20;;;;;;5101646;28;20432;-85
2023/11/22 18:39:13;;;;;;;1.30;1.20;;;22.90;61.30;;;;;;5102631;28;20482;-86
2023/11/22 18:41:40;;;;;;;3.23;1.47;;;22.80;61.80;;;;;;5123007;22;20459;-85
2023/11/22 18:44:08;;;;;;;1.50;1.40;;;22.80;61.20;;;;;;5119137;28;20434;-95
2023/11/22 18:46:36;;;;;;;3.50;1.60;;;22.90;61.20;;;;;;5115444;28;20431;-95
2023/11/22 18:49:03;;;;;;;2.30;1.70;;;22.80;59.90;;;;;;5100419;28;20451;-85
2023/11/22 18:51:29;;;;;;;4.80;1.50;;;22.80;59.80;;;;;;5105951;28;20453;-86
2023/11/22 18:53:57;;;;;;;1.60;1.20;;;22.80;60.90;;;;;;5125197;22;20972;-85
2023/11/22 18:56:24;;;;;;;1.43;1.33;;;22.80;61.10;;;;;;5110933;23;20487;-85
2023/11/22 18:58:52;;;;;;;3.00;1.80;;;22.80;61.20;;;;;;5100351;28;20473;-85
2023/11/22 19:01:20;;;;;;;2.53;1.70;;;22.80;61.20;;;;;;5119920;23;20481;-85
2023/11/22 19:03:47;;;;;;;2.50;1.40;;;22.80;61.60;;;;;;5120059;28;20496;-85
2023/11/22 19:06:14;;;;;;;2.77;1.47;;;22.80;61.40;;;;;;5108867;28;20535;-86
2023/11/22 19:08:42;;;;;;;2.00;1.70;;;22.80;61.50;;;;;;5101353;28;20934;-86
2023/11/22 19:11:11;;;;;;;3.23;1.50;;;22.90;61.10;;;;;;5101561;28;20427;-86
2023/11/22 19:13:38;;;;;;;3.73;1.50;;;22.90;61.40;;;;;;5104577;28;20756;-91
2023/11/22 19:16:05;;;;;;;2.43;1.50;;;22.90;61.30;;;;;;5098355;28;20926;-86
2023/11/22 19:18:32;;;;;;;1.60;1.40;;;22.90;61.10;;;;;;5116536;23;20494;-86
2023/11/22 19:21:02;;;;;;;1.50;1.40;;;22.90;61.30;;;;;;5120185;28;20439;-86
2023/11/22 19:23:30;;;;;;;1.70;1.60;;;22.90;61.30;;;;;;5118566;28;20937;-95
2023/11/22 19:25:59;;;;;;;1.60;1.50;;;22.90;61.50;;;;;;5097845;28;20434;-88
2023/11/22 19:28:27;;;;;;;2.00;1.80;;;22.90;60.00;;;;;;5114171;22;20483;-86
2023/11/22 19:30:54;;;;;;;1.97;1.70;;;22.90;61.60;;;;;;5101860;28;20485;-87
2023/11/22 19:33:21;;;;;;;1.90;1.80;;;22.90;61.40;;;;;;5091650;28;20448;-87
2023/11/22 19:35:49;;;;;;;1.77;1.67;;;22.90;61.20;;;;;;5097879;28;20439;-86
2023/11/22 19:38:15;;;;;;;3.93;1.83;;;22.90;61.30;;;;;;5101068;28;20447;-87
2023/11/22 19:40:44;;;;;;;5.53;1.87;;;22.90;61.00;;;;;;5115734;23;20570;-85
2023/11/22 19:43:11;;;;;;;2.23;2.03;;;23.00;61.20;;;;;;5099113;28;20444;-87
2023/11/22 19:45:40;;;;;;;2.10;1.90;;;23.00;61.10;;;;;;5128481;22;20980;-87
2023/11/22 19:48:07;;;;;;;3.37;1.73;;;23.00;61.10;;;;;;5120057;27;20445;-86
2023/11/22 19:50:34;;;;;;;2.13;1.70;;;23.00;61.10;;;;;;5117054;28;20435;-87
2023/11/22 19:53:02;;;;;;;2.43;1.87;;;23.00;61.40;;;;;;5129225;22;20475;-87
2023/11/22 19:55:29;;;;;;;3.30;2.00;;;23.00;61.00;;;;;;5120230;28;20518;-87
2023/11/22 19:57:59;;;;;;;2.97;2.07;;;23.10;61.80;;;;;;5118276;28;20525;-85
2023/11/22 20:00:25;;;;;;;1.70;1.60;;;23.00;60.90;;;;;;5123186;22;20490;-86
2023/11/22 20:03:00;;;;;;;3.03;2.57;;;23.00;61.90;;;;;;5115382;28;20445;-87
2023/11/22 20:05:27;;;;;;;7.20;2.30;;;23.10;59.40;;;;;;5118622;22;21224;-86
2023/11/22 20:07:53;;;;;;;2.90;2.23;;;23.00;60.20;;;;;;5101537;28;20442;-86
2023/11/22 20:10:24;;;;;;;2.00;1.80;;;23.00;61.50;;;;;;5105577;22;20483;-85
2023/11/22 20:12:50;;;;;;;2.93;1.73;;;23.00;61.00;;;;;;5106309;22;20483;-88
2023/11/22 20:15:17;;;;;;;2.07;1.90;;;23.00;61.40;;;;;;5098361;28;20448;-86
2023/11/22 20:17:44;;;;;;;2.03;1.93;;;22.90;61.30;;;;;;5098972;28;20454;-85
2023/11/22 20:20:16;;;;;;;4.10;2.03;;;22.90;61.10;;;;;;5098862;28;20494;-95
2023/11/22 20:22:43;;;;;;;3.70;1.87;;;23.00;61.30;;;;;;5098076;28;20454;-85
2023/11/22 20:25:10;;;;;;;1.97;1.87;;;23.00;60.20;;;;;;5093903;28;20443;-91
2023/11/22 20:27:37;;;;;;;2.43;1.63;;;22.90;59.70;;;;;;5098846;28;20458;-85
2023/11/22 20:30:04;;;;;;;2.07;1.97;;;22.90;60.00;;;;;;5119608;28;20447;-85
2023/11/22 20:32:30;;;;;;;2.63;1.73;;;22.90;60.50;;;;;;5120082;27;20447;-85
2023/11/22 20:34:58;;;;;;;1.97;1.70;;;22.90;61.30;;;;;;5122566;28;20474;-85
2023/11/22 20:37:26;;;;;;;2.33;1.70;;;22.90;61.30;;;;;;5102682;28;20477;-86
2023/11/22 20:39:53;;;;;;;2.37;2.03;;;22.90;61.30;;;;;;5095389;28;20966;-85
2023/11/22 20:42:19;;;;;;;2.30;2.10;;;22.90;61.10;;;;;;5104071;22;20447;-86
2023/11/22 20:44:47;;;;;;;6.30;2.33;;;22.90;61.40;;;;;;5077947;28;20444;-85
2023/11/22 20:47:14;;;;;;;2.33;2.13;;;22.90;61.30;;;;;;5075136;28;20508;-86
2023/11/22 20:49:41;;;;;;;3.13;2.30;;;22.90;59.90;;;;;;5073747;28;20943;-85
2023/11/22 20:52:07;;;;;;;2.70;2.03;;;22.90;60.60;;;;;;5079361;28;20539;-85
2023/11/22 20:54:36;;;;;;;2.70;2.50;;;22.90;61.00;;;;;;5076535;28;20440;-96
2023/11/22 20:57:04;;;;;;;2.67;2.47;;;22.90;61.10;;;;;;5076844;28;20526;-85
2023/11/22 20:59:31;;;;;;;2.10;1.90;;;22.90;59.90;;;;;;5077880;28;20483;-85
2023/11/22 21:01:58;;;;;;;2.60;2.40;;;22.90;60.70;;;;;;5088809;28;20479;-85
2023/11/22 21:04:30;;;;;;;3.70;2.20;;;22.90;61.40;;;;;;5080653;28;20455;-84
2023/11/22 21:07:00;;;;;;;2.53;2.07;;;22.90;61.40;;;;;;5022504;28;20469;-83
2023/11/22 21:12:05;;;;;;;2.60;1.93;;;22.90;60.90;;;;;;5135756;23;20497;-85
2023/11/22 21:14:33;;;;;;;2.67;2.03;;;22.90;61.20;;;;;;5082433;28;20455;-85
2023/11/22 21:17:00;;;;;;;5.27;2.53;;;23.00;61.60;;;;;;5078495;28;20537;-85
2023/11/22 21:19:26;;;;;;;2.03;1.93;;;22.90;61.40;;;;;;5084092;28;20903;-90
2023/11/22 21:21:53;;;;;;;2.40;2.10;;;22.90;61.50;;;;;;5078680;28;20432;-95
2023/11/22 21:24:20;;;;;;;2.80;2.20;;;22.90;61.90;;;;;;5094690;28;20426;-86
2023/11/22 21:26:47;;;;;;;2.43;2.23;;;22.90;61.50;;;;;;5100267;28;20443;-85
2023/11/22 21:29:15;;;;;;;2.30;1.80;;;22.90;61.60;;;;;;5103094;28;20446;-85
2023/11/22 21:31:42;;;;;;;2.27;1.83;;;22.90;61.60;;;;;;5100408;28;20442;-94
2023/11/22 21:34:09;;;;;;;3.00;2.20;;;22.90;61.50;;;;;;5100373;28;20454;-86
2023/11/22 21:36:38;;;;;;;2.53;2.07;;;22.90;61.70;;;;;;5083232;28;20449;-86
2023/11/22 21:39:11;;;;;;;2.33;2.17;;;22.90;61.60;;;;;;5106475;23;20473;-85
2023/11/22 21:41:44;;;;;;;2.37;2.20;;;22.90;61.50;;;;;;5123772;28;20418;-94
2023/11/22 21:44:11;;;;;;;2.20;2.00;;;22.90;61.60;;;;;;5119765;28;20434;-85
2023/11/22 21:46:39;;;;;;;2.20;2.00;;;22.90;61.90;;;;;;5123042;28;20450;-85
2023/11/22 21:49:06;;;;;;;2.70;1.90;;;22.90;61.70;;;;;;5106167;28;20817;-85
2023/11/22 21:51:35;;;;;;;3.10;2.80;;;23.00;61.80;;;;;;5117643;28;20447;-84
2023/11/22 21:54:02;;;;;;;2.50;2.30;;;22.90;61.90;;;;;;5099701;28;20495;-84
2023/11/22 21:56:29;;;;;;;4.33;2.40;;;22.90;61.60;;;;;;5106133;28;20439;-83
2023/11/22 21:58:57;;;;;;;3.27;2.53;;;22.90;61.70;;;;;;5106054;28;20458;-84
2023/11/22 22:01:24;;;;;;;1.70;1.60;;;23.00;61.90;;;;;;5107064;28;20494;-84
2023/11/22 22:03:52;;;;;;;2.10;1.90;;;22.90;61.60;;;;;;5108190;28;20423;-84
2023/11/22 22:06:20;;;;;;;2.20;2.00;;;22.90;61.60;;;;;;5095472;28;20471;-84
2023/11/22 22:08:47;;;;;;;2.73;1.80;;;22.90;61.50;;;;;;5105999;28;20450;-85
2023/11/22 22:11:14;;;;;;;2.23;2.10;;;22.90;61.40;;;;;;5101484;28;20505;-84
2023/11/22 22:13:41;;;;;;;2.33;2.13;;;22.90;61.60;;;;;;5100633;28;20513;-85
2023/11/22 22:16:09;;;;;;;2.93;2.13;;;22.90;61.60;;;;;;5098680;28;20811;-84
2023/11/22 22:18:36;;;;;;;2.83;2.20;;;22.90;61.50;;;;;;5097901;28;20459;-84
2023/11/22 22:21:05;;;;;;;2.30;2.10;;;22.90;61.50;;;;;;5138430;22;1148625;-85
2023/11/22 22:23:34;;;;;;;2.63;2.03;;;22.90;61.40;;;;;;5124838;28;20546;-85
2023/11/22 22:26:01;;;;;;;2.17;2.00;;;22.80;61.40;;;;;;5126666;28;20447;-84
2023/11/22 22:28:29;;;;;;;2.90;1.90;;;22.80;61.40;;;;;;5128698;22;20467;-84
2023/11/22 22:30:56;;;;;;;2.33;2.10;;;22.80;61.50;;;;;;5120908;28;20462;-84
2023/11/22 22:33:23;;;;;;;4.13;2.73;;;22.80;61.50;;;;;;5123888;28;20483;-85
2023/11/22 22:35:51;;;;;;;2.10;1.90;;;22.80;61.60;;;;;;5114458;28;20909;-84
2023/11/22 22:38:19;;;;;;;2.10;2.00;;;22.80;61.60;;;;;;5103197;28;20486;-84
2023/11/22 22:40:46;;;;;;;2.30;2.10;;;22.80;61.60;;;;;;5102016;28;20487;-85
2023/11/22 22:43:13;;;;;;;1.97;1.80;;;22.80;61.60;;;;;;5119102;22;20491;-85
2023/11/22 22:45:40;;;;;;;2.43;2.23;;;22.70;61.40;;;;;;5122628;28;20422;-85
2023/11/22 22:48:12;;;;;;;2.60;1.87;;;22.70;61.60;;;;;;5129090;22;20812;-85
2023/11/22 22:50:39;;;;;;;2.37;2.17;;;22.70;61.50;;;;;;5121852;28;20445;-84
2023/11/22 22:53:06;;;;;;;3.67;2.10;;;22.70;61.70;;;;;;5127988;22;20835;-84
2023/11/22 22:55:36;;;;;;;1.97;1.77;;;22.70;61.70;;;;;;5128036;28;20415;-84
2023/11/22 22:58:02;;;;;;;2.40;2.20;;;22.70;61.80;;;;;;5125237;28;20454;-84
2023/11/22 23:00:37;;;;;;;4.60;2.00;;;22.60;61.50;;;;;;5124436;28;20576;-84
2023/11/22 23:03:05;;;;;;;2.27;2.07;;;22.60;61.60;;;;;;5119499;22;20993;-84
2023/11/22 23:05:32;;;;;;;2.37;2.23;;;22.60;61.60;;;;;;5110174;23;20493;-85
2023/11/22 23:08:00;;;;;;;2.13;1.93;;;22.60;61.60;;;;;;5132526;22;20583;-85
2023/11/22 23:10:27;;;;;;;2.50;2.30;;;22.60;61.60;;;;;;5124124;28;20457;-85
2023/11/22 23:12:55;;;;;;;2.07;1.97;;;22.60;61.70;;;;;;5122250;28;20431;-85
2023/11/22 23:15:23;;;;;;;2.10;2.00;;;22.60;61.70;;;;;;5121744;28;20439;-84
2023/11/22 23:17:49;;;;;;;2.07;1.97;;;22.60;61.80;;;;;;5120436;28;20425;-84
2023/11/22 23:20:17;;;;;;;2.53;2.30;;;22.60;61.70;;;;;;5123166;28;20482;-85
2023/11/22 23:22:44;;;;;;;1.90;1.80;;;22.60;61.70;;;;;;5134777;22;20522;-84
2023/11/22 23:25:12;;;;;;;2.00;1.70;;;22.50;61.80;;;;;;5131395;22;20478;-84
2023/11/22 23:27:39;;;;;;;2.27;2.07;;;22.50;61.60;;;;;;5127921;28;20450;-85
2023/11/22 23:30:09;;;;;;;2.30;2.10;;;22.50;61.70;;;;;;5127694;22;20447;-84
2023/11/22 23:32:36;;;;;;;2.43;2.00;;;22.50;61.80;;;;;;5079796;28;20456;-85
2023/11/22 23:35:05;;;;;;;2.50;2.30;;;22.50;61.80;;;;;;5084544;22;20499;-84
2023/11/22 23:37:32;;;;;;;2.53;2.33;;;22.50;61.80;;;;;;5120345;28;20453;-84